Time;durP1;ratioP1;P1;durP2;ratioP2;P2;SDS_P1;SDS_P2;PMS_P1;PMS_P2;Temp;Humidity;BMP_temperature;BMP_pressure;BME280_temperature;BME280_humidity;BME280_pressure;Samples;Min_cycle;Max_cycle;Signal;HPM_P1;HPM_P2
2024/01/28 00:02:24;;;;;;;17.20;10.05;;;;;;;-0.39;100.00;103100.28;5287227;28;20055;-69
2024/01/28 00:04:55;;;;;;;19.27;8.97;;;;;;;-0.37;100.00;103095.25;5260811;28;20388;-70
2024/01/28 00:07:26;;;;;;;20.00;9.07;;;;;;;-0.44;100.00;103091.34;5260834;28;20615;-69
2024/01/28 00:09:58;;;;;;;23.67;9.30;;;;;;;-0.43;100.00;103079.44;5260976;28;20379;-69
2024/01/28 00:12:30;;;;;;;16.13;9.40;;;;;;;-0.44;100.00;103075.97;5259957;28;20043;-70
2024/01/28 00:15:02;;;;;;;21.42;10.35;;;;;;;-0.49;100.00;103073.91;5257418;28;20101;-69
2024/01/28 00:17:33;;;;;;;26.93;11.00;;;;;;;-0.48;100.00;103074.00;5240039;28;20053;-70
2024/01/28 00:20:05;;;;;;;19.87;10.13;;;;;;;-0.51;100.00;103066.09;5239913;28;20080;-69
2024/01/28 00:22:36;;;;;;;24.80;10.60;;;;;;;-0.54;100.00;103063.31;5239066;28;20029;-70
2024/01/28 00:25:08;;;;;;;17.63;9.90;;;;;;;-0.56;100.00;103060.66;5240018;28;20053;-70
2024/01/28 00:27:39;;;;;;;18.50;9.87;;;;;;;-0.57;100.00;103061.44;5239822;28;20034;-69
2024/01/28 00:30:12;;;;;;;20.67;9.73;;;;;;;-0.58;100.00;103057.09;5240494;28;20029;-70
2024/01/28 00:32:44;;;;;;;20.02;9.52;;;;;;;-0.62;100.00;103055.09;5238899;28;20117;-69
2024/01/28 00:35:15;;;;;;;18.93;9.77;;;;;;;-0.69;100.00;103060.59;5240478;28;20104;-70
2024/01/28 00:37:47;;;;;;;20.47;10.03;;;;;;;-0.67;100.00;103063.25;5240337;28;20467;-69
2024/01/28 00:40:18;;;;;;;19.63;9.83;;;;;;;-0.71;100.00;103061.25;5240002;28;20033;-69
2024/01/28 00:42:49;;;;;;;18.13;9.67;;;;;;;-0.82;100.00;103056.28;5240270;28;20469;-69
2024/01/28 00:45:21;;;;;;;20.77;11.00;;;;;;;-0.84;100.00;103057.81;5240283;28;20026;-69
2024/01/28 00:47:52;;;;;;;28.20;10.37;;;;;;;-0.87;100.00;103054.16;5240401;28;20029;-69
2024/01/28 00:50:24;;;;;;;23.30;9.00;;;;;;;-0.88;100.00;103049.84;5243547;28;20029;-68
2024/01/28 00:52:55;;;;;;;15.77;9.13;;;;;;;-0.93;100.00;103041.84;5244275;28;20026;-69
2024/01/28 00:55:28;;;;;;;17.47;10.13;;;;;;;-0.97;100.00;103035.59;5243810;28;20095;-69
2024/01/28 00:58:02;;;;;;;23.75;10.38;;;;;;;-0.96;100.00;103039.94;5243782;28;20034;-69
2024/01/28 01:00:34;;;;;;;16.75;9.05;;;;;;;-0.93;100.00;103031.59;5243690;28;20033;-69
2024/01/28 01:03:05;;;;;;;15.55;9.07;;;;;;;-0.96;100.00;103032.25;5243656;28;20033;-69
2024/01/28 01:05:41;;;;;;;19.53;10.60;;;;;;;-0.96;100.00;103019.44;5242457;28;20113;-69
2024/01/28 01:08:12;;;;;;;20.48;10.13;;;;;;;-0.98;100.00;103013.34;5243181;28;20143;-70
2024/01/28 01:10:44;;;;;;;27.60;11.83;;;;;;;-1.02;100.00;103018.13;5242379;28;20113;-70
2024/01/28 01:13:15;;;;;;;18.00;9.70;;;;;;;-0.98;100.00;103017.59;5243253;28;20112;-70
2024/01/28 01:15:47;;;;;;;18.40;9.00;;;;;;;-1.00;100.00;103024.25;5243445;28;20030;-69
2024/01/28 01:18:18;;;;;;;19.07;10.27;;;;;;;-1.02;100.00;103025.81;5275350;28;20025;-69
2024/01/28 01:20:51;;;;;;;16.50;8.47;;;;;;;-1.05;100.00;103023.03;5243059;28;20107;-69
2024/01/28 01:23:22;;;;;;;15.40;9.90;;;;;;;-1.06;100.00;103022.16;5243177;28;20128;-70
2024/01/28 01:25:53;;;;;;;16.57;9.30;;;;;;;-1.05;100.00;103021.34;5242702;28;20088;-70
2024/01/28 01:28:31;;;;;;;16.37;9.07;;;;;;;-1.13;100.00;103014.81;5243183;28;20127;-70
2024/01/28 01:31:03;;;;;;;17.95;9.27;;;;;;;-1.16;100.00;103012.94;5243299;28;20373;-70
2024/01/28 01:33:35;;;;;;;17.45;8.95;;;;;;;-1.23;100.00;103003.03;5243019;28;20032;-70
2024/01/28 01:36:06;;;;;;;18.83;10.43;;;;;;;-1.25;100.00;103007.16;5243062;28;20128;-69
2024/01/28 01:38:38;;;;;;;20.40;9.77;;;;;;;-1.33;100.00;103010.84;5242995;28;20025;-69
2024/01/28 01:41:09;;;;;;;13.50;9.03;;;;;;;-1.40;100.00;103011.16;5243033;28;20029;-70
2024/01/28 01:43:40;;;;;;;16.23;9.90;;;;;;;-1.42;100.00;103008.50;5242652;28;20038;-70
2024/01/28 01:46:12;;;;;;;17.07;9.27;;;;;;;-1.50;100.00;103007.06;5242832;28;20058;-69
2024/01/28 01:48:45;;;;;;;15.90;8.90;;;;;;;-1.57;100.00;103013.41;5242666;28;20030;-69
2024/01/28 01:51:17;;;;;;;13.82;9.93;;;;;;;-1.59;100.00;103014.97;5242702;28;20099;-69
2024/01/28 01:53:50;;;;;;;18.27;9.70;;;;;;;-1.63;100.00;103020.63;5242654;28;20029;-69
2024/01/28 01:56:23;;;;;;;17.30;8.25;;;;;;;-1.67;100.00;103023.75;5242644;28;20021;-70
2024/01/28 01:58:55;;;;;;;;;;;;;;;-1.75;100.00;103022.31;5242688;28;20034;-70
2024/01/28 02:01:29;;;;;;;18.90;8.32;;;;;;;-1.73;100.00;103011.41;5242609;28;20019;-70
2024/01/28 02:04:01;;;;;;;17.00;9.60;;;;;;;-1.76;100.00;103023.06;5242296;28;20029;-70
2024/01/28 02:06:32;;;;;;;19.20;10.65;;;;;;;-1.78;100.00;103020.41;5242267;28;20030;-70
2024/01/28 02:09:06;;;;;;;23.37;10.60;;;;;;;-1.77;100.00;103011.97;5241923;28;20087;-70
2024/01/28 02:11:37;;;;;;;17.63;9.57;;;;;;;-1.86;100.00;103009.59;5241820;28;20045;-70
2024/01/28 02:14:10;;;;;;;20.83;10.07;;;;;;;-1.87;100.00;103014.59;5242139;28;20453;-70
2024/01/28 02:16:41;;;;;;;22.10;11.98;;;;;;;-1.92;100.00;103006.59;5242045;28;20065;-70
2024/01/28 02:19:12;;;;;;;21.80;12.07;;;;;;;-2.04;100.00;103003.16;5242235;28;20502;-70
2024/01/28 02:21:44;;;;;;;20.30;10.10;;;;;;;-2.03;100.00;103003.25;5241862;28;20595;-70
2024/01/28 02:24:15;;;;;;;19.43;10.23;;;;;;;-2.14;100.00;102995.53;5241732;28;20033;-70
2024/01/28 02:26:46;;;;;;;19.80;10.80;;;;;;;-2.12;100.00;102989.78;5241435;28;20507;-70
2024/01/28 02:29:18;;;;;;;21.60;10.43;;;;;;;-2.17;100.00;102982.53;5241767;28;20087;-70
2024/01/28 02:31:49;;;;;;;25.40;12.30;;;;;;;-2.18;100.00;102976.53;5241797;28;20488;-70
2024/01/28 02:34:21;;;;;;;27.07;10.70;;;;;;;-2.25;100.00;102980.31;5241634;28;20457;-70
2024/01/28 02:36:52;;;;;;;21.00;9.90;;;;;;;-2.23;100.00;102970.22;5241706;28;20026;-70
2024/01/28 02:39:23;;;;;;;21.00;10.20;;;;;;;-2.29;100.00;102968.06;5241094;28;20069;-70
2024/01/28 02:41:55;;;;;;;18.07;9.00;;;;;;;-2.36;100.00;102959.88;5241586;28;20041;-70
2024/01/28 02:44:26;;;;;;;20.70;10.60;;;;;;;-2.40;100.00;102956.16;5241461;28;20033;-68
2024/01/28 02:46:57;;;;;;;23.03;10.87;;;;;;;-2.43;100.00;102961.03;5241454;28;20116;-70
2024/01/28 02:49:29;;;;;;;18.47;9.27;;;;;;;-2.48;100.00;102954.69;5241300;28;20037;-70
2024/01/28 02:52:00;;;;;;;24.47;9.57;;;;;;;-2.42;100.00;102960.28;5273275;28;20064;-70
2024/01/28 02:54:31;;;;;;;16.73;9.83;;;;;;;-2.43;100.00;102955.94;5241217;28;20041;-69
2024/01/28 02:57:03;;;;;;;20.67;9.67;;;;;;;-2.51;100.00;102950.28;5240925;28;20476;-70
2024/01/28 02:59:34;;;;;;;26.40;11.03;;;;;;;-2.54;100.00;102952.59;5241170;28;20033;-70
2024/01/28 03:02:06;;;;;;;16.60;9.63;;;;;;;-2.56;100.00;102946.44;5241116;28;20034;-70
2024/01/28 03:04:37;;;;;;;18.33;10.03;;;;;;;-2.53;100.00;102950.91;5240720;28;20556;-70
2024/01/28 03:07:08;;;;;;;18.60;9.77;;;;;;;-2.59;100.00;102951.34;5240997;28;20396;-70
2024/01/28 03:09:40;;;;;;;24.67;11.83;;;;;;;-2.56;100.00;102951.56;5240632;28;20180;-70
2024/01/28 03:12:11;;;;;;;18.67;9.57;;;;;;;-2.54;100.00;102952.59;5240201;28;20029;-70
2024/01/28 03:14:42;;;;;;;21.93;10.27;;;;;;;-2.59;100.00;102943.69;5240899;28;20361;-70
2024/01/28 03:17:14;;;;;;;16.97;9.27;;;;;;;-2.62;100.00;102940.91;5241236;28;20079;-70
2024/01/28 03:19:46;;;;;;;17.90;10.10;;;;;;;-2.63;100.00;102932.34;5239477;28;20087;-70
2024/01/28 03:22:18;;;;;;;20.38;9.75;;;;;;;-2.67;100.00;102925.25;5240873;28;20033;-70
2024/01/28 03:24:49;;;;;;;18.60;10.43;;;;;;;-2.66;100.00;102932.09;5240122;28;20515;-70
2024/01/28 03:27:20;;;;;;;18.60;10.03;;;;;;;-2.68;100.00;102927.69;5240656;28;20036;-70
2024/01/28 03:29:52;;;;;;;16.47;9.67;;;;;;;-2.66;100.00;102926.13;5240901;28;20122;-70
2024/01/28 03:32:23;;;;;;;15.80;8.90;;;;;;;-2.67;100.00;102927.78;5240416;28;20056;-70
2024/01/28 03:34:54;;;;;;;18.20;8.40;;;;;;;-2.70;100.00;102927.56;5240690;28;20099;-70
2024/01/28 03:37:26;;;;;;;15.70;9.07;;;;;;;-2.72;100.00;102926.56;5272499;28;20030;-70
2024/01/28 03:39:57;;;;;;;18.53;9.13;;;;;;;-2.72;100.00;102933.31;5239891;28;20041;-70
2024/01/28 03:42:29;;;;;;;21.90;9.83;;;;;;;-2.75;100.00;102924.66;5240700;28;20025;-70
2024/01/28 03:45:01;;;;;;;17.67;9.10;;;;;;;-2.79;100.00;102922.63;5240549;28;20026;-70
2024/01/28 03:47:32;;;;;;;16.80;8.97;;;;;;;-2.77;100.00;102922.75;5240463;28;20117;-70
2024/01/28 03:50:04;;;;;;;19.67;9.73;;;;;;;-2.77;100.00;102925.28;5239445;28;20441;-70
2024/01/28 03:52:36;;;;;;;18.13;8.95;;;;;;;-2.71;100.00;102927.44;5240269;28;20029;-69
2024/01/28 03:55:07;;;;;;;19.67;9.50;;;;;;;-2.72;100.00;102916.34;5240423;28;20124;-69
2024/01/28 03:57:39;;;;;;;23.93;9.40;;;;;;;-2.71;100.00;102918.09;5240877;28;20025;-69
2024/01/28 04:00:12;;;;;;;20.00;8.85;;;;;;;-2.67;100.00;102914.13;5240704;28;20040;-69
2024/01/28 04:02:43;;;;;;;19.45;10.38;;;;;;;-2.60;100.00;102911.28;5240475;28;20384;-69
2024/01/28 04:05:14;;;;;;;20.43;9.93;;;;;;;-2.53;100.00;102918.59;5240193;28;20034;-69
2024/01/28 04:07:46;;;;;;;18.10;9.70;;;;;;;-2.45;100.00;102919.19;5239459;28;20042;-69
2024/01/28 04:10:18;;;;;;;27.03;9.73;;;;;;;-2.40;100.00;102921.31;5240044;28;20094;-69
2024/01/28 04:12:49;;;;;;;18.15;8.63;;;;;;;-2.39;100.00;102925.63;5240267;28;20100;-69
2024/01/28 04:15:21;;;;;;;16.00;8.40;;;;;;;-2.35;100.00;102931.88;5240242;28;20544;-69
2024/01/28 04:17:52;;;;;;;19.33;8.20;;;;;;;-2.32;100.00;102926.09;5240157;28;20084;-69
2024/01/28 04:20:23;;;;;;;19.07;9.50;;;;;;;-2.34;100.00;102920.88;5238607;28;20034;-69
2024/01/28 04:22:55;;;;;;;20.73;9.23;;;;;;;-2.30;100.00;102917.78;5240119;28;20112;-69
2024/01/28 04:25:26;;;;;;;17.13;9.63;;;;;;;-2.30;100.00;102910.13;5242371;28;20441;-70
2024/01/28 04:27:57;;;;;;;22.17;9.00;;;;;;;-2.23;100.00;102906.34;5242639;28;20029;-70
2024/01/28 04:30:29;;;;;;;19.73;9.73;;;;;;;-2.25;100.00;102897.69;5243766;28;20168;-69
2024/01/28 04:33:00;;;;;;;17.23;8.47;;;;;;;-2.25;100.00;102896.00;5244121;28;20095;-69
2024/01/28 04:35:32;;;;;;;17.37;9.20;;;;;;;-2.29;100.00;102891.44;5244074;28;20041;-69
2024/01/28 04:38:03;;;;;;;16.97;7.80;;;;;;;-2.32;100.00;102883.53;5244000;28;20044;-70
2024/01/28 04:40:35;;;;;;;13.00;8.40;;;;;;;-2.36;100.00;102884.13;5243617;28;20493;-69
2024/01/28 04:43:06;;;;;;;20.80;7.43;;;;;;;-2.39;100.00;102881.31;5243642;28;20474;-69
2024/01/28 04:45:37;;;;;;;18.20;9.17;;;;;;;-2.38;100.00;102880.56;5243994;28;20099;-69
2024/01/28 04:48:09;;;;;;;21.97;9.13;;;;;;;-2.39;100.00;102879.66;5243842;28;20034;-69
2024/01/28 04:50:40;;;;;;;16.40;7.67;;;;;;;-2.35;100.00;102878.25;5243983;28;20087;-70
2024/01/28 04:53:12;;;;;;;20.57;8.43;;;;;;;-2.33;100.00;102873.25;5243717;28;20029;-70
2024/01/28 04:55:43;;;;;;;19.07;9.10;;;;;;;-2.34;100.00;102872.34;5243982;28;20033;-70
2024/01/28 04:58:15;;;;;;;17.73;8.63;;;;;;;-2.36;100.00;102868.78;5243641;28;20047;-70
2024/01/28 05:00:46;;;;;;;18.53;7.67;;;;;;;-2.36;100.00;102873.91;5243583;28;20029;-70
2024/01/28 05:03:17;;;;;;;16.13;8.77;;;;;;;-2.43;100.00;102867.44;5243513;28;20422;-69
2024/01/28 05:05:49;;;;;;;19.30;7.90;;;;;;;-2.45;100.00;102868.09;5242267;28;20025;-68
2024/01/28 05:08:20;;;;;;;21.53;9.10;;;;;;;-2.42;100.00;102864.09;5242664;28;20037;-69
2024/01/28 05:10:52;;;;;;;21.27;8.67;;;;;;;-2.44;100.00;102875.88;5243412;28;20030;-68
2024/01/28 05:13:23;;;;;;;16.97;8.60;;;;;;;-2.48;100.00;102880.63;5242081;28;20065;-69
2024/01/28 05:15:56;;;;;;;11.57;8.17;;;;;;;-2.48;100.00;102875.53;5243357;28;20079;-69
2024/01/28 05:18:27;;;;;;;18.30;8.82;;;;;;;-2.51;100.00;102870.19;5243124;28;20030;-69
2024/01/28 05:21:00;;;;;;;19.00;8.40;;;;;;;-2.53;100.00;102875.19;5243237;28;20041;-69
2024/01/28 05:23:31;;;;;;;19.42;9.80;;;;;;;-2.58;100.00;102872.31;5243173;28;20025;-69
2024/01/28 05:26:03;;;;;;;22.13;8.97;;;;;;;-2.58;100.00;102867.22;5242995;28;20128;-70
2024/01/28 05:28:34;;;;;;;19.93;8.83;;;;;;;-2.65;100.00;102862.41;5243031;28;20030;-70
2024/01/28 05:31:07;;;;;;;16.90;9.27;;;;;;;-2.69;100.00;102855.28;5243040;28;20029;-70
2024/01/28 05:33:40;;;;;;;16.98;8.50;;;;;;;-2.77;100.00;102864.94;5241492;28;20381;-70
2024/01/28 05:36:15;;;;;;;19.13;9.07;;;;;;;-2.75;100.00;102852.31;5242671;28;20366;-70
2024/01/28 05:38:46;;;;;;;22.90;8.82;;;;;;;-2.78;100.00;102837.63;5242583;28;20104;-70
2024/01/28 05:41:18;;;;;;;15.03;8.30;;;;;;;-2.78;100.00;102831.66;5242891;28;20440;-70
2024/01/28 05:43:49;;;;;;;15.67;7.67;;;;;;;-2.75;100.00;102831.88;5242414;28;20033;-69
2024/01/28 05:46:20;;;;;;;16.80;8.03;;;;;;;-2.71;100.00;102830.44;5241214;28;20417;-69
2024/01/28 05:48:53;;;;;;;18.03;9.47;;;;;;;-2.63;100.00;102835.31;5242750;28;20378;-69
2024/01/28 05:51:26;;;;;;;17.88;9.20;;;;;;;-2.62;100.00;102824.34;5241404;28;20121;-69
2024/01/28 05:53:58;;;;;;;14.93;7.28;;;;;;;-2.58;100.00;102830.56;5242048;28;20048;-69
2024/01/28 05:56:29;;;;;;;17.63;8.50;;;;;;;-2.57;100.00;102823.00;5242418;28;20396;-70
2024/01/28 05:59:00;;;;;;;20.00;7.83;;;;;;;-2.58;100.00;102826.34;5242277;28;20057;-69
2024/01/28 06:01:32;;;;;;;19.73;7.60;;;;;;;-2.60;100.00;102816.78;5242302;28;20095;-69
2024/01/28 06:04:04;;;;;;;20.60;7.83;;;;;;;-2.59;100.00;102816.91;5242254;28;20030;-69
2024/01/28 06:06:36;;;;;;;;;;;;;;;-2.67;100.00;102802.69;5242505;28;20084;-69
2024/01/28 06:09:08;;;;;;;18.00;7.78;;;;;;;-2.55;100.00;102809.47;5241709;28;20311;-70
2024/01/28 06:11:42;;;;;;;16.33;7.35;;;;;;;-2.58;100.00;102802.47;5242163;28;20030;-70
2024/01/28 06:14:13;;;;;;;20.58;8.18;;;;;;;-2.58;100.00;102793.16;5242205;28;20087;-70
2024/01/28 06:16:44;;;;;;;15.30;7.63;;;;;;;-2.63;100.00;102793.59;5241966;28;20037;-69
2024/01/28 06:19:16;;;;;;;21.67;7.70;;;;;;;-2.65;100.00;102798.56;5240862;28;20121;-70
2024/01/28 06:21:48;;;;;;;16.90;7.17;;;;;;;-2.64;100.00;102791.81;5241566;28;20029;-70
2024/01/28 06:24:19;;;;;;;13.93;7.07;;;;;;;-2.65;100.00;102790.03;5241695;28;20430;-70
2024/01/28 06:26:50;;;;;;;14.83;6.40;;;;;;;-2.67;100.00;102789.00;5241542;28;20029;-70
2024/01/28 06:29:22;;;;;;;14.17;8.33;;;;;;;-2.70;100.00;102792.25;5241952;28;20033;-70
2024/01/28 06:31:53;;;;;;;18.27;6.47;;;;;;;-2.72;100.00;102792.91;5241859;28;20362;-70
2024/01/28 06:34:24;;;;;;;21.23;7.83;;;;;;;-2.76;100.00;102796.91;5257013;28;20084;-69
2024/01/28 06:36:56;;;;;;;18.23;7.17;;;;;;;-2.76;100.00;102789.25;5240394;28;20108;-69
2024/01/28 06:39:27;;;;;;;17.53;7.17;;;;;;;-2.80;100.00;102787.22;5240875;28;20071;-69
2024/01/28 06:41:59;;;;;;;78.47;39.63;;;;;;;-2.84;100.00;102783.56;5240075;28;20457;-69
2024/01/28 06:44:32;;;;;;;36.63;15.57;;;;;;;-2.96;100.00;102778.44;5241369;28;20392;-68
2024/01/28 06:47:04;;;;;;;19.52;8.68;;;;;;;-2.96;100.00;102775.03;5240537;28;20033;-69
2024/01/28 06:49:36;;;;;;;14.48;7.47;;;;;;;-3.01;100.00;102777.22;5241273;28;20057;-69
2024/01/28 06:52:07;;;;;;;15.50;6.93;;;;;;;-3.08;100.00;102780.06;5240080;28;20212;-69
2024/01/28 06:54:41;;;;;;;18.90;7.10;;;;;;;-3.07;100.00;102778.44;5241223;28;20366;-69
2024/01/28 06:57:12;;;;;;;18.45;8.50;;;;;;;-3.03;100.00;102772.78;5241366;28;20129;-69
2024/01/28 06:59:44;;;;;;;14.70;6.87;;;;;;;-3.04;100.00;102778.63;5241159;28;20033;-69
2024/01/28 07:02:15;;;;;;;14.70;7.67;;;;;;;-3.02;100.00;102765.22;5241307;28;20084;-69
2024/01/28 07:04:46;;;;;;;17.37;7.47;;;;;;;-3.02;100.00;102765.22;5241106;28;20408;-69
2024/01/28 07:07:18;;;;;;;16.33;6.83;;;;;;;-3.04;100.00;102774.44;5240983;28;20030;-69
2024/01/28 07:09:49;;;;;;;19.20;6.30;;;;;;;-3.04;100.00;102777.00;5239337;28;20041;-71
2024/01/28 07:12:21;;;;;;;9.43;6.20;;;;;;;-3.01;100.00;102776.31;5239291;28;20029;-69
2024/01/28 07:14:52;;;;;;;18.13;7.17;;;;;;;-3.03;100.00;102780.44;5240525;28;20121;-70
2024/01/28 07:17:24;;;;;;;17.30;7.23;;;;;;;-3.08;100.00;102774.97;5240378;28;20476;-69
2024/01/28 07:19:55;;;;;;;15.80;8.47;;;;;;;-3.11;100.00;102782.41;5240587;28;20089;-70
2024/01/28 07:22:26;;;;;;;26.33;10.87;;;;;;;-3.11;100.00;102777.28;5239731;28;20445;-70
2024/01/28 07:24:58;;;;;;;160.20;69.27;;;;;;;-3.10;100.00;102783.31;5240700;28;20141;-69
2024/01/28 07:27:29;;;;;;;38.73;17.93;;;;;;;-3.21;100.00;102769.75;5240491;28;20040;-70
2024/01/28 07:30:00;;;;;;;19.90;9.23;;;;;;;-3.21;100.00;102767.19;5240843;28;20124;-69
2024/01/28 07:32:32;;;;;;;20.70;9.10;;;;;;;-3.17;100.00;102766.63;5239769;28;20029;-71
2024/01/28 07:35:04;;;;;;;22.17;11.40;;;;;;;-3.17;100.00;102769.19;5255831;28;20033;-69
2024/01/28 07:37:35;;;;;;;17.80;8.70;;;;;;;-3.12;100.00;102758.56;5260014;28;20043;-70
2024/01/28 07:40:07;;;;;;;19.03;9.23;;;;;;;-3.16;100.00;102764.19;5259455;28;20081;-70
2024/01/28 07:42:39;;;;;;;14.55;6.78;;;;;;;-3.13;100.00;102763.53;5259280;28;20436;-70
2024/01/28 07:45:10;;;;;;;17.37;7.80;;;;;;;-3.14;100.00;102759.19;5260021;28;20028;-70
2024/01/28 07:47:42;;;;;;;11.90;6.77;;;;;;;-3.07;100.00;102755.47;5260606;28;20029;-70
2024/01/28 07:50:13;;;;;;;25.57;10.80;;;;;;;-3.03;100.00;102760.00;5258441;28;20369;-70
2024/01/28 07:52:45;;;;;;;19.03;7.87;;;;;;;-3.02;100.00;102761.81;5260346;28;20082;-69
2024/01/28 07:55:16;;;;;;;14.90;6.20;;;;;;;-2.96;100.00;102760.59;5259037;28;20157;-70
2024/01/28 07:57:47;;;;;;;13.97;6.83;;;;;;;-2.91;100.00;102754.91;5260516;28;20113;-69
2024/01/28 08:00:19;;;;;;;18.67;7.63;;;;;;;-2.91;100.00;102758.38;5263669;28;20036;-70
2024/01/28 08:02:50;;;;;;;18.80;7.77;;;;;;;-2.80;100.00;102752.41;5263012;28;20439;-70
2024/01/28 08:05:22;;;;;;;23.90;6.87;;;;;;;-2.72;100.00;102758.06;5264077;28;20411;-70
2024/01/28 08:07:53;;;;;;;15.23;6.67;;;;;;;-2.67;100.00;102766.94;5263379;28;20033;-70
2024/01/28 08:10:25;;;;;;;16.97;7.57;;;;;;;-2.66;100.00;102758.50;5260487;28;20379;-70
2024/01/28 08:12:56;;;;;;;13.83;7.13;;;;;;;-2.59;100.00;102765.84;5263201;28;20025;-70
2024/01/28 08:15:28;;;;;;;15.47;7.27;;;;;;;-2.43;100.00;102760.19;5262646;28;20624;-71
2024/01/28 08:17:59;;;;;;;13.70;8.17;;;;;;;-2.24;100.00;102752.16;5263163;28;20241;-71
2024/01/28 08:20:30;;;;;;;15.67;7.10;;;;;;;-2.06;100.00;102752.59;5262608;28;20068;-71
2024/01/28 08:23:03;;;;;;;14.50;6.93;;;;;;;-1.96;100.00;102743.88;5246646;28;20079;-71
2024/01/28 08:25:34;;;;;;;14.85;6.72;;;;;;;-1.79;100.00;102739.06;5262105;28;20051;-71
2024/01/28 08:28:06;;;;;;;14.83;7.13;;;;;;;-1.68;100.00;102740.69;5263012;28;20211;-71
2024/01/28 08:30:38;;;;;;;16.48;7.57;;;;;;;-1.48;100.00;102739.50;5263689;28;20029;-71
2024/01/28 08:33:09;;;;;;;11.47;5.90;;;;;;;-1.29;100.00;102741.59;5261322;28;20106;-72
2024/01/28 08:35:41;;;;;;;14.50;6.53;;;;;;;-1.06;100.00;102747.34;5263667;28;20400;-71
2024/01/28 08:38:12;;;;;;;16.70;6.90;;;;;;;-0.87;100.00;102734.09;5263615;28;20056;-71
2024/01/28 08:40:43;;;;;;;12.47;5.90;;;;;;;-0.74;100.00;102732.44;5260647;28;20056;-72
2024/01/28 08:43:15;;;;;;;12.07;5.83;;;;;;;-0.56;100.00;102735.31;5262244;28;20037;-70
2024/01/28 08:45:46;;;;;;;9.50;6.00;;;;;;;-0.35;100.00;102734.91;5263485;28;20040;-70
2024/01/28 08:48:17;;;;;;;13.97;6.30;;;;;;;-0.18;100.00;102728.25;5262206;28;20029;-71
2024/01/28 08:50:49;;;;;;;10.27;5.87;;;;;;;-0.05;100.00;102720.56;5261905;28;20107;-71
2024/01/28 08:53:20;;;;;;;12.27;5.40;;;;;;;0.14;100.00;102726.81;5262781;28;20060;-70
2024/01/28 08:55:52;;;;;;;11.87;5.03;;;;;;;0.25;100.00;102725.78;5262089;28;20134;-71
2024/01/28 08:58:23;;;;;;;14.20;5.97;;;;;;;0.49;100.00;102726.38;5262965;28;20029;-71
2024/01/28 09:00:54;;;;;;;13.20;5.50;;;;;;;0.64;100.00;102730.63;5263047;28;20029;-71
2024/01/28 09:03:26;;;;;;;11.43;5.97;;;;;;;0.79;100.00;102731.56;5260805;28;20116;-71
2024/01/28 09:05:57;;;;;;;12.37;5.87;;;;;;;1.12;100.00;102730.84;5261410;28;20665;-71
2024/01/28 09:08:30;;;;;;;11.60;5.40;;;;;;;1.33;100.00;102732.06;5263177;28;20401;-71
2024/01/28 09:11:01;;;;;;;;;;;;;;;1.81;100.00;102727.84;5261024;28;20040;-71
2024/01/28 09:13:33;;;;;;;12.95;5.65;;;;;;;1.87;100.00;102727.31;5273069;28;19916;-71
2024/01/28 09:16:04;;;;;;;11.33;5.47;;;;;;;2.11;100.00;102726.84;5283530;28;20391;-70
2024/01/28 09:18:36;;;;;;;12.90;5.87;;;;;;;2.28;100.00;102727.75;5283128;28;20363;-71
2024/01/28 09:21:07;;;;;;;9.90;4.67;;;;;;;2.53;100.00;102728.22;5284025;28;20098;-71
2024/01/28 09:23:39;;;;;;;9.77;5.37;;;;;;;2.77;100.00;102727.72;5284463;28;20036;-72
2024/01/28 09:26:10;;;;;;;9.60;5.77;;;;;;;2.81;99.82;102731.31;5283771;28;20098;-71
2024/01/28 09:28:42;;;;;;;9.77;4.50;;;;;;;3.18;99.89;102722.84;5284522;28;20037;-71
2024/01/28 09:31:13;;;;;;;7.90;4.30;;;;;;;3.35;98.01;102723.63;5284188;28;20028;-71
2024/01/28 09:33:44;;;;;;;11.30;4.93;;;;;;;3.39;95.63;102718.69;5284709;28;20032;-73
2024/01/28 09:36:16;;;;;;;8.40;4.40;;;;;;;3.71;96.10;102706.44;5283752;28;20079;-73
2024/01/28 09:38:47;;;;;;;8.20;4.00;;;;;;;3.83;93.51;102706.13;5274187;28;20025;-73
2024/01/28 09:41:31;;;;;;;14.83;4.47;;;;;;;4.28;92.38;102713.28;5264769;28;20037;-72
2024/01/28 09:44:03;;;;;;;9.85;4.22;;;;;;;4.37;88.56;102708.53;5262968;28;20483;-72
2024/01/28 09:46:36;;;;;;;;;;;;;;;5.03;99.87;102700.97;5260827;28;20166;-73
2024/01/28 09:49:11;;;;;;;11.75;4.03;;;;;;;4.95;91.61;102699.78;5268297;28;19917;-73
2024/01/28 09:51:42;;;;;;;9.15;3.90;;;;;;;5.05;84.07;102711.38;5262327;28;20074;-73
2024/01/28 09:54:14;;;;;;;9.10;4.73;;;;;;;5.36;80.00;102708.34;5261487;28;20033;-72
2024/01/28 09:56:46;;;;;;;9.37;4.13;;;;;;;5.57;81.03;102705.72;5262441;28;20102;-73
2024/01/28 09:59:17;;;;;;;8.97;3.50;;;;;;;5.91;78.69;102707.00;5268128;28;20027;-73
2024/01/28 10:01:51;;;;;;;8.33;3.83;;;;;;;6.00;72.42;102698.69;5270319;28;20040;-73
2024/01/28 10:04:23;;;;;;;6.63;3.00;;;;;;;6.08;72.77;102694.69;5272274;28;20047;-72
2024/01/28 10:06:57;;;;;;;8.87;4.40;;;;;;;6.53;71.93;102697.13;5272074;28;20029;-72
2024/01/28 10:09:29;;;;;;;8.88;3.72;;;;;;;6.79;71.24;102699.75;5267105;28;20125;-72
2024/01/28 10:12:01;;;;;;;11.35;3.88;;;;;;;7.10;70.37;102698.19;5270017;28;20029;-71
2024/01/28 10:14:32;;;;;;;8.80;3.50;;;;;;;7.15;69.62;102688.84;5270277;28;20491;-74
2024/01/28 10:17:04;;;;;;;7.90;3.50;;;;;;;7.62;66.60;102685.94;5260173;28;20112;-73
2024/01/28 10:19:35;;;;;;;7.33;3.47;;;;;;;7.54;63.45;102687.44;5262429;28;20036;-73
2024/01/28 10:22:07;;;;;;;8.60;3.70;;;;;;;7.75;62.44;102682.00;5260693;28;20025;-73
2024/01/28 10:24:41;;;;;;;11.83;3.97;;;;;;;7.83;64.39;102676.19;5260550;28;20114;-73
2024/01/28 10:27:12;;;;;;;6.05;3.80;;;;;;;8.04;63.27;102673.31;5261666;28;20049;-73
2024/01/28 10:29:45;;;;;;;7.57;3.80;;;;;;;8.55;63.31;102679.06;5261870;28;20460;-73
2024/01/28 10:32:17;;;;;;;11.10;4.68;;;;;;;8.39;57.42;102673.41;5275436;28;20036;-73
2024/01/28 10:34:48;;;;;;;12.77;3.83;;;;;;;8.83;57.83;102672.81;5262002;28;20464;-73
2024/01/28 10:37:21;;;;;;;10.43;3.83;;;;;;;8.86;57.95;102672.88;5260851;28;20060;-74
2024/01/28 10:39:56;;;;;;;13.00;3.78;;;;;;;9.31;55.73;102673.94;5282425;28;20021;-73
2024/01/28 10:42:30;;;;;;;8.85;3.90;;;;;;;9.44;55.00;102670.78;5257912;28;20062;-73
2024/01/28 10:45:06;;;;;;;7.20;3.65;;;;;;;9.91;54.87;102674.34;5262026;28;20048;-73
2024/01/28 10:47:53;;;;;;;10.00;3.83;;;;;;;10.09;52.88;102672.09;5258966;28;20155;-71
2024/01/28 10:50:31;;;;;;;8.88;4.00;;;;;;;10.48;51.54;102670.25;5260978;28;20033;-73
2024/01/28 10:53:04;;;;;;;7.10;3.53;;;;;;;10.77;51.04;102671.63;5261143;28;20021;-73
2024/01/28 10:55:36;;;;;;;10.90;3.90;;;;;;;11.29;51.06;102663.72;5259338;28;20048;-72
2024/01/28 10:58:08;;;;;;;8.63;3.83;;;;;;;11.73;50.29;102657.34;5262153;28;20028;-72
2024/01/28 11:00:40;;;;;;;;;;;;;;;12.42;52.11;102648.56;5260586;28;20029;-72
2024/01/28 11:03:12;;;;;;;10.43;3.70;;;;;;;11.53;48.47;102646.66;5261560;28;20305;-72
2024/01/28 11:05:43;;;;;;;7.78;3.67;;;;;;;11.71;46.28;102637.31;5259566;28;20053;-72
2024/01/28 11:08:15;;;;;;;7.53;3.23;;;;;;;12.16;45.14;102647.44;5259158;28;20400;-72
2024/01/28 11:10:47;;;;;;;10.53;3.93;;;;;;;12.63;44.87;102632.16;5260076;28;20039;-72
2024/01/28 11:13:19;;;;;;;8.82;3.38;;;;;;;12.88;44.37;102621.03;5262797;28;20120;-72
2024/01/28 11:15:54;;;;;;;5.60;2.97;;;;;;;13.23;44.72;102625.59;5269070;28;20104;-72
2024/01/28 11:18:29;;;;;;;8.23;3.65;;;;;;;13.58;43.52;102622.31;5270361;28;20021;-73
2024/01/28 11:21:13;;;;;;;7.38;3.40;;;;;;;14.19;43.36;102621.59;5270664;28;20533;-72
2024/01/28 11:23:47;;;;;;;5.85;3.13;;;;;;;14.19;42.65;102624.22;5282367;28;20128;-73
2024/01/28 11:26:19;;;;;;;10.93;4.13;;;;;;;14.16;42.55;102613.72;5281988;28;20132;-72
2024/01/28 11:28:53;;;;;;;10.40;3.65;;;;;;;14.87;40.50;102613.75;5282509;28;20032;-72
2024/01/28 11:31:33;;;;;;;8.68;3.97;;;;;;;15.05;40.18;102606.72;5280294;28;20025;-72
2024/01/28 11:34:19;;;;;;;7.75;3.70;;;;;;;15.21;40.37;102599.69;5282351;28;20031;-72
2024/01/28 11:36:52;;;;;;;8.48;3.65;;;;;;;15.70;38.94;102594.22;5274168;28;20044;-73